Time;durP1;ratioP1;P1;durP2;ratioP2;P2;SDS_P1;SDS_P2;PMS_P1;PMS_P2;Temp;Humidity;BMP_temperature;BMP_pressure;BME280_temperature;BME280_humidity;BME280_pressure;Samples;Min_cycle;Max_cycle;Signal;HPM_P1;HPM_P2
2022/08/02 00:01:30;;;;;;;5.47;2.20;;;;;;;19.52;47.66;101777.84;5116199;28;20470;-63
2022/08/02 00:03:55;;;;;;;5.03;2.22;;;;;;;19.49;47.93;101775.59;5117288;27;20027;-63
2022/08/02 00:06:20;;;;;;;7.40;2.10;;;;;;;19.45;47.92;101774.50;5108606;27;20065;-63
2022/08/02 00:08:46;;;;;;;6.03;2.20;;;;;;;19.45;47.90;101763.22;5131736;27;20031;-63
2022/08/02 00:11:11;;;;;;;3.67;2.20;;;;;;;19.43;47.49;101765.50;5135879;27;20091;-63
2022/08/02 00:13:36;;;;;;;4.50;2.15;;;;;;;19.39;47.64;101770.88;5129282;27;20483;-63
2022/08/02 00:16:02;;;;;;;5.25;2.30;;;;;;;19.36;47.68;101766.66;5119617;27;20409;-63
2022/08/02 00:18:28;;;;;;;3.95;1.98;;;;;;;19.35;48.12;101776.25;5124215;27;20550;-63
2022/08/02 00:20:53;;;;;;;3.58;2.22;;;;;;;19.31;48.23;101765.84;5116490;27;20023;-63
2022/08/02 00:23:18;;;;;;;4.45;1.90;;;;;;;19.32;48.28;101767.53;5128121;27;20028;-63
2022/08/02 00:25:44;;;;;;;4.40;2.25;;;;;;;19.32;48.14;101771.19;5126292;27;20073;-63
2022/08/02 00:28:12;;;;;;;3.58;2.03;;;;;;;19.27;48.17;101785.31;5125433;27;20050;-63
2022/08/02 00:30:38;;;;;;;4.80;2.10;;;;;;;19.28;47.98;101781.34;5132349;27;20440;-63
2022/08/02 00:33:07;;;;;;;4.40;2.05;;;;;;;19.25;48.20;101781.91;5121734;27;20027;-63
2022/08/02 00:35:33;;;;;;;6.38;2.42;;;;;;;19.22;48.45;101785.34;5128917;27;20023;-64
2022/08/02 00:37:58;;;;;;;5.72;2.47;;;;;;;19.19;48.69;101783.09;5135435;27;20383;-64
2022/08/02 00:40:23;;;;;;;4.72;2.25;;;;;;;19.23;48.42;101781.38;5117923;27;20031;-64
2022/08/02 00:43:07;;;;;;;5.95;2.13;;;;;;;19.26;48.35;101778.00;5131464;27;20374;-63
2022/08/02 00:45:37;;;;;;;4.03;2.47;;;;;;;19.19;47.97;101768.19;5125770;27;20067;-63
2022/08/02 00:48:05;;;;;;;4.82;2.13;;;;;;;19.20;47.98;101779.13;5120616;27;20024;-64
2022/08/02 00:50:31;;;;;;;4.32;2.00;;;;;;;19.20;47.23;101772.66;5122930;27;20032;-64
2022/08/02 00:52:57;;;;;;;4.07;2.17;;;;;;;19.17;47.61;101768.44;5119779;27;20035;-63
2022/08/02 00:55:22;;;;;;;4.45;2.35;;;;;;;19.18;47.50;101758.03;5133268;27;20038;-63
2022/08/02 00:57:48;;;;;;;4.95;2.22;;;;;;;19.16;47.64;101749.88;5122749;27;20016;-64
2022/08/02 01:00:14;;;;;;;3.22;2.15;;;;;;;19.12;47.63;101755.25;5115104;27;20114;-63
2022/08/02 01:02:40;;;;;;;4.55;2.22;;;;;;;19.14;47.67;101749.34;5131981;27;20038;-64
2022/08/02 01:05:05;;;;;;;6.60;2.00;;;;;;;19.13;47.58;101744.84;5132928;27;20024;-64
2022/08/02 01:07:31;;;;;;;3.15;1.90;;;;;;;19.18;47.26;101744.81;5114950;28;20020;-63
2022/08/02 01:09:56;;;;;;;6.22;2.10;;;;;;;19.13;47.46;101750.47;5113839;28;20051;-64
2022/08/02 01:12:22;;;;;;;3.63;1.80;;;;;;;19.20;47.36;101748.19;5113920;28;20038;-63
2022/08/02 01:14:49;;;;;;;5.38;1.95;;;;;;;19.15;47.33;101748.22;5114987;28;20116;-64
2022/08/02 01:17:52;;;;;;;3.58;1.83;;;;;;;19.22;47.54;101750.72;5124565;27;20061;-62
2022/08/02 01:20:28;;;;;;;;;;;;;;;19.42;47.51;101752.56;5094800;28;20051;-63
2022/08/02 01:23:08;;;;;;;4.10;2.00;;;;;;;19.13;48.22;101753.28;5105951;28;19976;-64
2022/08/02 01:26:01;;;;;;;3.10;1.70;;;;;;;19.12;48.23;101751.59;5115176;28;20118;-63
2022/08/02 01:28:29;;;;;;;3.90;1.73;;;;;;;19.09;48.37;101752.16;5118429;27;20117;-63
2022/08/02 01:31:00;;;;;;;4.85;2.00;;;;;;;19.03;48.94;101756.16;5113334;28;20052;-63
2022/08/02 01:33:40;;;;;;;5.40;1.80;;;;;;;19.08;48.85;101751.34;5118129;27;20526;-63
2022/08/02 01:36:10;;;;;;;3.28;1.92;;;;;;;19.01;49.10;101747.97;5115951;27;20039;-64
2022/08/02 01:38:42;;;;;;;3.88;1.88;;;;;;;19.01;49.08;101752.78;5114045;28;20068;-64
2022/08/02 01:41:12;;;;;;;;;;;;;;;19.28;48.42;101746.72;5113985;28;20057;-64
2022/08/02 01:43:41;;;;;;;5.07;1.75;;;;;;;19.02;48.82;101743.19;5112429;28;19943;-63
2022/08/02 01:46:08;;;;;;;5.60;2.28;;;;;;;19.03;49.26;101742.91;5103513;28;20036;-63
2022/08/02 01:48:33;;;;;;;5.70;1.98;;;;;;;18.99;48.82;101738.16;5124914;27;20051;-63
2022/08/02 01:51:01;;;;;;;5.43;2.20;;;;;;;19.03;48.89;101728.84;5121498;27;20051;-63
2022/08/02 01:53:29;;;;;;;4.45;2.17;;;;;;;19.01;49.11;101730.25;5131275;27;20023;-63
2022/08/02 01:55:57;;;;;;;4.38;1.95;;;;;;;18.98;49.05;101722.38;5120930;27;20472;-63
2022/08/02 01:58:25;;;;;;;2.97;2.00;;;;;;;18.95;49.21;101725.81;5129262;27;20038;-63
2022/08/02 02:00:54;;;;;;;4.90;2.40;;;;;;;18.95;48.80;101721.00;5119193;27;20482;-63
2022/08/02 02:03:22;;;;;;;5.47;2.05;;;;;;;18.99;48.84;101727.75;5116987;27;20036;-64
2022/08/02 02:05:50;;;;;;;5.10;2.10;;;;;;;18.98;48.73;101714.81;5123846;27;20059;-64
2022/08/02 02:08:22;;;;;;;3.22;2.00;;;;;;;19.00;48.76;101728.59;5113622;27;20032;-63
2022/08/02 02:10:48;;;;;;;8.32;2.53;;;;;;;19.04;48.69;101713.66;5121713;27;21567;-63
2022/08/02 02:13:17;;;;;;;3.58;2.00;;;;;;;19.00;48.62;101714.53;5114234;27;20035;-63
2022/08/02 02:15:46;;;;;;;4.82;2.05;;;;;;;18.94;49.34;101712.84;5128493;27;20024;-63
2022/08/02 02:18:22;;;;;;;7.47;2.22;;;;;;;18.99;48.95;101710.03;5121461;27;20030;-63
2022/08/02 02:20:48;;;;;;;6.32;2.25;;;;;;;19.01;48.83;101707.75;5133712;27;20385;-63
2022/08/02 02:23:14;;;;;;;5.28;2.30;;;;;;;19.02;49.00;101703.81;5117006;27;20027;-63
2022/08/02 02:25:41;;;;;;;6.38;2.13;;;;;;;18.98;48.97;101691.44;5128612;27;20157;-63
2022/08/02 02:28:11;;;;;;;4.93;2.03;;;;;;;18.96;49.46;101691.75;5118057;27;20528;-63
2022/08/02 02:30:40;;;;;;;4.53;2.10;;;;;;;19.03;49.15;101686.66;5119369;27;20035;-63
2022/08/02 02:33:10;;;;;;;10.02;2.38;;;;;;;18.96;49.18;101690.91;5113557;27;20019;-63
2022/08/02 02:35:37;;;;;;;5.53;2.13;;;;;;;18.92;49.77;101689.81;5118631;27;20020;-63
2022/08/02 02:38:08;;;;;;;5.20;1.80;;;;;;;18.92;50.36;101687.84;5118175;27;20118;-63
2022/08/02 02:40:35;;;;;;;3.97;2.13;;;;;;;18.91;50.26;101688.13;5108614;27;20068;-63
2022/08/02 02:43:02;;;;;;;4.47;2.10;;;;;;;18.90;50.40;101695.69;5129335;27;20031;-64
2022/08/02 02:45:30;;;;;;;6.18;2.40;;;;;;;18.81;50.82;101691.81;5112345;28;20042;-63
2022/08/02 02:47:57;;;;;;;5.88;1.80;;;;;;;18.78;51.11;101690.41;5115060;27;20027;-63
2022/08/02 02:50:23;;;;;;;4.85;1.77;;;;;;;18.79;50.86;101700.56;5134328;27;20062;-63
2022/08/02 02:52:49;;;;;;;4.55;2.00;;;;;;;18.79;51.14;101686.50;5124646;27;20051;-63
2022/08/02 02:55:16;;;;;;;5.00;2.28;;;;;;;18.72;51.51;101688.78;5112656;28;20031;-63
2022/08/02 02:57:42;;;;;;;4.65;1.92;;;;;;;18.71;51.61;101695.53;5112896;27;20026;-63
2022/08/02 03:00:11;;;;;;;4.90;2.00;;;;;;;18.67;51.81;101696.34;5130013;27;20030;-63
2022/08/02 03:02:41;;;;;;;7.93;2.13;;;;;;;18.62;51.96;101697.19;5109169;28;20021;-63
2022/08/02 03:05:08;;;;;;;7.65;2.00;;;;;;;18.56;52.16;101690.75;5112169;28;20496;-63
2022/08/02 03:07:34;;;;;;;6.82;2.30;;;;;;;18.54;52.47;101678.13;5113119;28;20028;-63
2022/08/02 03:10:02;;;;;;;5.75;2.13;;;;;;;18.51;52.39;101682.34;5112564;28;20474;-64
2022/08/02 03:12:28;;;;;;;4.53;2.05;;;;;;;18.50;52.56;101679.81;5111874;28;20035;-63
2022/08/02 03:14:54;;;;;;;6.53;2.30;;;;;;;18.49;52.61;101678.13;5119010;27;20531;-63
2022/08/02 03:17:19;;;;;;;4.53;2.00;;;;;;;18.46;52.62;101675.91;5133179;27;20484;-63
2022/08/02 03:19:44;;;;;;;6.00;2.17;;;;;;;18.45;52.79;101683.50;5112978;27;20019;-63
2022/08/02 03:22:10;;;;;;;5.57;2.08;;;;;;;18.37;53.05;101678.47;5112898;28;20359;-63
2022/08/02 03:24:36;;;;;;;6.70;2.35;;;;;;;18.39;53.03;101676.19;5111865;28;20032;-63
2022/08/02 03:27:02;;;;;;;4.93;2.17;;;;;;;18.36;53.21;101683.25;5113214;28;20038;-63
2022/08/02 03:29:27;;;;;;;4.38;2.20;;;;;;;18.36;53.18;101685.22;5112581;28;20027;-63
2022/08/02 03:31:53;;;;;;;4.43;2.22;;;;;;;18.35;53.21;101683.50;5113150;28;20035;-63
2022/08/02 03:34:20;;;;;;;6.13;1.92;;;;;;;18.32;53.20;101700.97;5112522;28;20031;-63
2022/08/02 03:36:49;;;;;;;7.00;2.17;;;;;;;18.28;53.54;101689.44;5107385;28;20076;-62
2022/08/02 03:39:15;;;;;;;5.30;2.30;;;;;;;18.20;53.80;101678.78;5111768;28;20034;-63
2022/08/02 03:41:42;;;;;;;6.82;2.30;;;;;;;18.20;53.96;101673.16;5113137;28;20119;-63
2022/08/02 03:44:08;;;;;;;7.13;2.33;;;;;;;18.19;53.65;101668.66;5114716;28;20478;-63
2022/08/02 03:46:38;;;;;;;4.28;2.10;;;;;;;18.17;53.87;101665.31;5111384;28;20032;-63
2022/08/02 03:49:03;;;;;;;7.35;2.47;;;;;;;18.17;53.73;101667.28;5110935;28;20062;-64
2022/08/02 03:51:29;;;;;;;6.28;2.35;;;;;;;18.17;53.61;101654.06;5110290;28;20063;-63
2022/08/02 03:53:55;;;;;;;6.55;2.30;;;;;;;18.18;53.87;101663.34;5109509;28;20039;-63
2022/08/02 03:56:21;;;;;;;5.80;2.53;;;;;;;18.13;53.88;101658.56;5110868;28;20034;-63
2022/08/02 03:58:46;;;;;;;6.13;2.20;;;;;;;18.08;54.19;101662.25;5119210;28;20027;-64
2022/08/02 04:01:12;;;;;;;6.93;2.22;;;;;;;18.10;54.53;101650.69;5120060;28;20034;-63
2022/08/02 04:03:37;;;;;;;5.60;2.38;;;;;;;18.08;54.33;101653.81;5128234;28;20104;-63
2022/08/02 04:06:02;;;;;;;8.52;2.80;;;;;;;18.05;54.55;101654.38;5113698;28;20027;-63
2022/08/02 04:08:28;;;;;;;5.32;2.60;;;;;;;18.06;54.77;101652.41;5125886;28;20102;-63
2022/08/02 04:13:37;;;;;;;7.95;2.38;;;;;;;18.17;54.75;101644.78;5118599;28;20057;-64
2022/08/02 04:16:12;;;;;;;6.60;2.75;;;;;;;18.13;54.70;101645.38;5129501;28;20020;-63
2022/08/02 04:18:42;;;;;;;5.75;2.60;;;;;;;18.07;54.88;101646.47;5109560;28;20120;-63
2022/08/02 04:21:12;;;;;;;5.93;2.65;;;;;;;18.10;55.00;101653.50;5113091;28;20016;-63
2022/08/02 04:23:40;;;;;;;7.03;2.92;;;;;;;18.10;55.10;101648.72;5117830;28;20019;-63
2022/08/02 04:26:06;;;;;;;3.70;2.33;;;;;;;18.05;55.19;101642.28;5119079;28;20070;-62
2022/08/02 04:28:34;;;;;;;5.07;2.92;;;;;;;18.06;55.29;101652.41;5117633;28;20058;-62
2022/08/02 04:31:00;;;;;;;5.68;3.10;;;;;;;18.05;55.32;101654.38;5119872;28;20084;-62
2022/08/02 04:33:26;;;;;;;4.72;2.63;;;;;;;18.03;55.49;101651.00;5129235;27;20027;-63
2022/08/02 04:35:51;;;;;;;5.20;2.75;;;;;;;18.03;55.70;101652.97;5117383;27;20432;-63
2022/08/02 04:38:17;;;;;;;8.75;3.10;;;;;;;18.06;55.34;101658.00;5128794;27;20130;-63
2022/08/02 04:40:54;;;;;;;8.52;3.20;;;;;;;18.07;55.62;101659.69;5119760;27;20031;-63
2022/08/02 04:43:20;;;;;;;9.00;3.10;;;;;;;18.04;55.52;101663.09;5127697;27;20019;-63
2022/08/02 04:45:48;;;;;;;5.15;3.08;;;;;;;18.01;55.60;101663.66;5134943;27;20043;-63
2022/08/02 04:48:13;;;;;;;4.65;2.67;;;;;;;18.03;55.92;101656.59;5119127;27;20039;-63
2022/08/02 04:50:39;;;;;;;5.15;2.75;;;;;;;18.02;55.98;101651.28;5110850;27;20026;-63
2022/08/02 04:53:04;;;;;;;5.47;2.63;;;;;;;18.02;56.03;101652.13;5126950;27;20501;-63
2022/08/02 04:55:29;;;;;;;5.85;2.97;;;;;;;18.02;56.24;101651.28;5117662;27;20565;-64
2022/08/02 04:57:56;;;;;;;5.65;3.25;;;;;;;18.03;56.44;101650.16;5118571;27;20034;-63
2022/08/02 05:00:22;;;;;;;5.60;3.00;;;;;;;18.03;56.59;101648.19;5112853;27;20019;-63
2022/08/02 05:02:48;;;;;;;8.93;3.22;;;;;;;18.02;56.70;101646.50;5096790;27;20024;-63
2022/08/02 05:05:13;;;;;;;7.82;2.85;;;;;;;17.99;56.96;101646.22;5095096;28;20032;-63
2022/08/02 05:07:39;;;;;;;9.07;3.67;;;;;;;18.04;56.91;101646.25;5094993;28;20024;-63
2022/08/02 05:10:04;;;;;;;5.75;3.50;;;;;;;18.08;56.81;101638.94;5107515;28;20027;-64
2022/08/02 05:12:30;;;;;;;4.22;3.05;;;;;;;18.12;56.45;101642.84;5114852;28;20522;-64
2022/08/02 05:14:55;;;;;;;5.50;3.45;;;;;;;18.19;56.59;101646.19;5113414;28;20055;-62
2022/08/02 05:17:20;;;;;;;8.07;3.95;;;;;;;18.20;57.00;101642.25;5112885;28;20038;-63
2022/08/02 05:19:46;;;;;;;6.43;3.72;;;;;;;18.23;57.25;101644.47;5109798;28;20032;-63
2022/08/02 05:22:11;;;;;;;7.90;3.60;;;;;;;18.29;57.13;101648.97;5114666;28;20024;-63
2022/08/02 05:24:36;;;;;;;9.05;4.47;;;;;;;18.31;57.55;101638.31;5113507;28;20024;-64
2022/08/02 05:27:02;;;;;;;8.15;4.30;;;;;;;18.34;57.80;101634.06;5114828;28;20468;-63
2022/08/02 05:29:27;;;;;;;10.73;4.90;;;;;;;18.37;57.83;101636.31;5112668;28;20366;-62
2022/08/02 05:31:53;;;;;;;9.48;5.00;;;;;;;18.37;58.10;101637.13;5118749;27;20038;-63
2022/08/02 05:34:18;;;;;;;8.57;5.25;;;;;;;18.40;58.45;101618.88;5109921;28;20496;-63
2022/08/02 05:36:44;;;;;;;10.10;5.38;;;;;;;18.45;58.37;101629.25;5112700;27;20030;-63
2022/08/02 05:39:09;;;;;;;7.53;5.25;;;;;;;18.48;58.32;101628.69;5118628;27;20043;-63
2022/08/02 05:41:34;;;;;;;9.68;5.63;;;;;;;18.49;58.84;101634.00;5124462;27;20023;-63
2022/08/02 05:44:00;;;;;;;10.60;5.57;;;;;;;18.56;58.89;101637.34;5117187;27;20109;-63
2022/08/02 05:46:25;;;;;;;12.20;6.32;;;;;;;18.60;58.69;101629.19;5121106;27;20019;-62
2022/08/02 05:48:51;;;;;;;9.77;5.90;;;;;;;18.65;58.86;101627.16;5121655;27;20051;-62
2022/08/02 05:51:27;;;;;;;10.68;5.70;;;;;;;18.72;58.65;101634.50;5109748;27;20099;-62
2022/08/02 05:54:08;;;;;;;10.48;6.03;;;;;;;18.74;58.99;101635.88;5113208;27;20027;-63
2022/08/02 05:56:46;;;;;;;4.07;2.90;;;;;;;18.96;58.67;101643.09;5119213;27;20031;-60
2022/08/02 05:59:32;;;;;;;5.85;2.95;;;;;;;19.12;58.55;101642.69;5112244;27;20023;-61
2022/08/02 06:02:02;;;;;;;6.30;3.30;;;;;;;19.28;58.75;101651.03;5111415;27;20030;-61
2022/08/02 06:04:48;;;;;;;6.55;4.85;;;;;;;19.34;58.40;101653.53;5111366;27;20031;-61
2022/08/02 06:07:18;;;;;;;4.22;3.15;;;;;;;19.50;58.93;101656.22;5110987;27;20424;-60
2022/08/02 06:09:44;;;;;;;6.70;3.95;;;;;;;19.57;58.81;101659.53;5108615;27;20055;-61
2022/08/02 06:12:11;;;;;;;5.18;4.05;;;;;;;19.61;59.19;101655.00;5111760;27;20035;-61
2022/08/02 06:14:36;;;;;;;5.85;4.10;;;;;;;19.66;57.61;101659.78;5112573;27;20027;-62
2022/08/02 06:17:05;;;;;;;4.60;3.90;;;;;;;19.72;58.17;101667.03;5109889;28;20035;-62
2022/08/02 06:19:31;;;;;;;6.22;4.03;;;;;;;19.78;58.38;101663.06;5111515;28;20039;-63
2022/08/02 06:22:13;;;;;;;5.78;4.35;;;;;;;19.83;58.65;101663.84;5125137;27;20023;-62
2022/08/02 06:24:49;;;;;;;5.72;4.40;;;;;;;19.92;59.43;101672.47;5120000;27;20128;-62
2022/08/02 06:27:14;;;;;;;8.65;4.80;;;;;;;19.92;59.72;101660.38;5109276;28;20398;-62
2022/08/02 06:29:42;;;;;;;5.80;3.75;;;;;;;19.99;58.86;101660.88;5113705;27;20019;-62
2022/08/02 06:32:08;;;;;;;6.32;4.43;;;;;;;20.07;59.34;101655.44;5111142;27;20031;-61
2022/08/02 06:34:37;;;;;;;9.00;5.05;;;;;;;20.10;59.29;101645.53;5116161;27;20081;-63
2022/08/02 06:37:23;;;;;;;10.13;5.15;;;;;;;20.18;58.54;101644.88;5110677;28;20051;-63
2022/08/02 06:39:53;;;;;;;7.50;4.00;;;;;;;20.28;58.33;101653.25;5106685;28;20043;-63
2022/08/02 06:53:07;;;;;;;7.35;4.22;;;;;;;20.51;57.14;101628.16;4970685;28;20047;-67
2022/08/02 07:02:50;;;;;;;8.70;4.88;;;;;;;20.79;57.43;101626.41;4916366;28;20058;-65
2022/08/02 07:05:16;;;;;;;8.88;5.82;;;;;;;20.90;58.08;101641.19;4951540;28;20475;-64
2022/08/02 07:07:41;;;;;;;9.00;5.70;;;;;;;20.93;58.17;101647.06;5048048;28;20021;-64
2022/08/02 07:10:07;;;;;;;9.27;5.78;;;;;;;21.00;58.18;101643.88;5051761;28;20029;-64
2022/08/02 07:12:33;;;;;;;6.93;5.20;;;;;;;21.10;57.61;101652.19;5045751;28;20063;-65
2022/08/02 07:15:01;;;;;;;9.88;5.15;;;;;;;21.18;56.97;101656.31;5050001;28;20033;-64
2022/08/02 07:17:27;;;;;;;10.75;6.43;;;;;;;21.23;57.71;101657.09;5046636;28;20031;-63
2022/08/02 07:19:53;;;;;;;9.50;5.65;;;;;;;21.28;57.50;101647.69;5044753;28;20029;-63
2022/08/02 07:22:21;;;;;;;8.18;5.13;;;;;;;21.33;57.27;101650.47;5040663;28;20017;-63
2022/08/02 07:24:47;;;;;;;11.15;5.18;;;;;;;21.39;57.47;101637.13;5052268;28;20052;-62
2022/08/02 07:27:12;;;;;;;11.65;5.38;;;;;;;21.40;57.49;101638.78;5051314;28;20110;-62
2022/08/02 07:29:38;;;;;;;8.18;4.70;;;;;;;21.46;57.38;101644.06;5044463;28;20029;-63
2022/08/02 07:32:04;;;;;;;6.72;4.55;;;;;;;21.50;57.38;101638.63;5044308;28;20395;-62
2022/08/02 07:34:29;;;;;;;7.50;4.53;;;;;;;21.46;57.52;101632.75;5038567;28;20034;-62
2022/08/02 07:36:54;;;;;;;9.32;4.50;;;;;;;21.56;57.62;101632.56;5043359;28;20032;-62
2022/08/02 07:39:20;;;;;;;6.18;4.18;;;;;;;21.65;57.38;101627.03;5047814;28;20078;-63
2022/08/02 07:41:46;;;;;;;6.10;4.47;;;;;;;21.66;57.23;101628.75;5032800;28;20037;-61
2022/08/02 07:44:11;;;;;;;5.05;3.72;;;;;;;21.71;57.10;101614.53;5049918;28;20032;-62
2022/08/02 07:46:37;;;;;;;7.68;4.38;;;;;;;21.78;57.15;101629.09;5049308;28;20087;-61
2022/08/02 07:49:02;;;;;;;7.07;4.45;;;;;;;21.79;57.54;101619.47;5049248;28;20029;-61
2022/08/02 07:51:27;;;;;;;6.75;4.07;;;;;;;21.88;57.67;101628.06;5050757;28;20029;-62
2022/08/02 07:53:53;;;;;;;5.50;3.63;;;;;;;22.00;57.46;101634.03;5044581;28;20064;-62
2022/08/02 07:56:18;;;;;;;4.60;4.00;;;;;;;22.06;55.84;101634.81;5040935;28;20017;-62
2022/08/02 07:58:43;;;;;;;5.47;4.50;;;;;;;22.10;56.90;101638.69;5041511;28;20396;-63
2022/08/02 08:01:09;;;;;;;7.20;5.10;;;;;;;22.12;56.84;101632.69;5045782;28;20029;-62
2022/08/02 08:03:34;;;;;;;4.60;3.67;;;;;;;22.20;56.29;101637.66;5047056;28;20027;-62
2022/08/02 08:05:59;;;;;;;5.93;3.60;;;;;;;22.23;56.15;101635.03;5044510;28;20124;-63
2022/08/02 08:08:25;;;;;;;6.07;3.80;;;;;;;22.32;56.06;101631.47;5046288;28;20101;-63
2022/08/02 08:10:50;;;;;;;4.72;3.38;;;;;;;22.36;56.28;101633.41;5050006;28;20076;-63
2022/08/02 08:13:15;;;;;;;6.55;3.05;;;;;;;22.39;55.04;101627.09;5048527;28;20077;-63
2022/08/02 08:15:41;;;;;;;5.10;3.40;;;;;;;22.40;55.09;101636.41;5050460;28;20112;-64
2022/08/02 08:18:06;;;;;;;5.97;3.22;;;;;;;22.40;54.99;101633.59;5045915;28;20123;-65
2022/08/02 08:20:32;;;;;;;4.25;2.80;;;;;;;22.41;54.53;101638.94;5053534;28;20025;-65
2022/08/02 08:22:57;;;;;;;4.22;2.88;;;;;;;22.43;54.80;101628.13;5054721;28;20061;-65
2022/08/02 08:25:22;;;;;;;2.97;2.55;;;;;;;22.45;54.78;101630.66;5038473;28;20038;-65
2022/08/02 08:27:50;;;;;;;3.60;2.83;;;;;;;22.46;54.83;101621.84;5053805;28;20035;-65
2022/08/02 08:30:16;;;;;;;3.70;2.92;;;;;;;22.44;53.14;101612.88;5053366;28;20024;-65
2022/08/02 08:32:45;;;;;;;5.25;2.88;;;;;;;22.54;53.67;101623.09;5055239;28;20108;-65
2022/08/02 08:35:14;;;;;;;2.80;2.60;;;;;;;22.56;53.23;101623.66;5038876;28;20045;-65
2022/08/02 08:37:39;;;;;;;5.05;2.40;;;;;;;22.62;52.26;101610.22;5037899;28;20021;-65
2022/08/02 08:40:06;;;;;;;4.38;2.47;;;;;;;22.70;53.07;101610.31;5047942;28;20048;-65
2022/08/02 08:42:32;;;;;;;5.00;2.78;;;;;;;22.73;52.41;101609.66;5052612;28;20692;-66
2022/08/02 08:44:58;;;;;;;3.50;2.40;;;;;;;22.79;52.09;101614.06;5054041;28;20044;-65
2022/08/02 08:47:32;;;;;;;3.03;2.45;;;;;;;22.87;51.86;101620.13;5038594;28;20037;-66
2022/08/02 08:50:03;;;;;;;4.95;2.55;;;;;;;22.88;52.23;101625.47;5048604;28;20036;-65
2022/08/02 08:52:35;;;;;;;4.38;2.25;;;;;;;22.91;51.11;101624.88;5044776;28;20044;-65
2022/08/02 08:55:04;;;;;;;4.53;2.35;;;;;;;22.98;50.72;101624.44;5039615;28;20461;-65
2022/08/02 08:57:30;;;;;;;3.17;1.83;;;;;;;22.98;50.17;101630.91;5050536;28;20052;-65
2022/08/02 08:59:55;;;;;;;5.35;1.98;;;;;;;23.01;49.32;101620.97;5039041;28;20041;-65
2022/08/02 09:02:22;;;;;;;4.75;1.95;;;;;;;23.03;49.95;101613.84;5046860;28;20084;-65
2022/08/02 09:04:48;;;;;;;2.72;2.08;;;;;;;23.09;50.79;101622.22;5053215;28;20036;-65
2022/08/02 09:07:13;;;;;;;3.75;1.90;;;;;;;23.05;48.23;101624.00;5038064;28;20068;-65
2022/08/02 09:09:38;;;;;;;2.78;1.88;;;;;;;23.07;47.76;101624.50;5054545;28;20032;-65
2022/08/02 09:12:20;;;;;;;4.00;2.05;;;;;;;23.12;48.19;101628.06;5046518;28;20022;-65
2022/08/02 09:14:46;;;;;;;;;;;;;;;23.15;49.84;101620.94;5044579;28;20068;-65
2022/08/02 09:17:11;;;;;;;2.13;1.75;;;;;;;23.22;46.79;101624.13;5050179;28;19960;-65
2022/08/02 09:19:37;;;;;;;2.65;1.52;;;;;;;23.30;45.94;101616.88;5050582;28;20017;-65
2022/08/02 09:22:03;;;;;;;2.55;1.70;;;;;;;23.39;46.25;101614.97;5054006;28;20755;-65
2022/08/02 09:24:39;;;;;;;3.13;1.60;;;;;;;23.50;46.06;101611.56;5043563;28;20116;-65
2022/08/02 09:27:10;;;;;;;3.78;1.58;;;;;;;23.62;46.62;101612.94;5048944;28;20067;-65
2022/08/02 09:29:36;;;;;;;3.03;2.00;;;;;;;23.74;46.53;101610.41;5050587;28;20105;-65
2022/08/02 09:32:03;;;;;;;2.15;1.70;;;;;;;23.84;46.96;101617.78;5045128;28;20116;-64
2022/08/02 09:34:57;;;;;;;1.48;1.35;;;;;;;23.85;46.22;101617.47;5045735;28;20064;-65
2022/08/02 09:37:28;;;;;;;3.55;1.70;;;;;;;23.90;44.12;101608.00;5025619;28;20033;-65
2022/08/02 09:39:54;;;;;;;2.92;1.70;;;;;;;23.97;43.31;101608.34;5052090;28;20784;-64
2022/08/02 09:42:20;;;;;;;4.20;1.77;;;;;;;23.98;43.66;101615.72;5051778;28;20123;-64
2022/08/02 09:44:57;;;;;;;2.90;1.50;;;;;;;24.06;43.94;101614.91;5040657;28;20476;-65
2022/08/02 09:47:27;;;;;;;1.70;1.60;;;;;;;24.15;44.21;101614.94;5049397;28;20407;-65
2022/08/02 09:49:54;;;;;;;4.10;1.52;;;;;;;24.26;45.17;101607.84;5050361;28;20021;-65
2022/08/02 09:52:30;;;;;;;3.30;1.58;;;;;;;24.29;44.20;101623.34;5053954;28;20029;-65
2022/08/02 09:55:03;;;;;;;3.00;1.80;;;;;;;24.28;43.63;101616.84;5050082;28;20025;-65
2022/08/02 09:57:29;;;;;;;2.65;1.70;;;;;;;24.36;42.66;101618.03;5047678;28;20483;-66
2022/08/02 09:59:56;;;;;;;2.33;1.50;;;;;;;24.30;41.78;101617.34;5046369;28;20046;-63
2022/08/02 10:02:21;;;;;;;2.40;1.60;;;;;;;24.43;42.28;101622.09;5043143;28;20021;-63
2022/08/02 10:04:46;;;;;;;3.45;1.63;;;;;;;24.51;41.56;101616.78;5039761;28;20048;-65
2022/08/02 10:07:12;;;;;;;4.95;1.65;;;;;;;24.53;41.99;101614.47;5049576;28;20033;-66
2022/08/02 10:09:38;;;;;;;2.58;1.40;;;;;;;24.56;41.83;101611.78;5051877;28;20068;-65
2022/08/02 10:12:05;;;;;;;2.70;2.10;;;;;;;24.64;42.04;101615.81;5052937;28;20450;-65
2022/08/02 10:14:33;;;;;;;3.15;1.42;;;;;;;24.86;41.17;101617.72;5042230;28;20137;-65
2022/08/02 10:17:00;;;;;;;1.98;1.50;;;;;;;24.87;40.94;101619.38;5047471;28;20025;-65
2022/08/02 10:19:26;;;;;;;4.20;1.20;;;;;;;24.87;40.40;101613.69;5035060;28;20052;-65
2022/08/02 10:21:51;;;;;;;3.17;1.30;;;;;;;24.86;41.34;101612.03;5042724;28;20061;-66
2022/08/02 10:24:19;;;;;;;5.07;1.40;;;;;;;24.89;39.50;101614.22;5047190;28;20067;-64
2022/08/02 10:26:46;;;;;;;2.67;1.20;;;;;;;24.96;39.54;101600.34;5040148;28;20120;-75
2022/08/02 10:29:17;;;;;;;1.98;1.30;;;;;;;25.01;39.84;101603.03;5046750;28;20087;-63
2022/08/02 10:31:50;;;;;;;1.88;1.00;;;;;;;25.15;39.84;101603.75;5043605;28;20813;-63
2022/08/02 10:34:20;;;;;;;3.45;1.30;;;;;;;25.12;38.36;101601.56;5050994;28;20037;-68
2022/08/02 10:36:47;;;;;;;2.55;1.15;;;;;;;25.20;38.05;101600.72;5049120;28;20040;-66
2022/08/02 10:39:13;;;;;;;2.00;1.10;;;;;;;25.19;37.73;101592.50;5049076;28;20495;-66
2022/08/02 10:41:45;;;;;;;3.42;1.20;;;;;;;25.19;38.69;101596.22;5052741;28;20029;-65
2022/08/02 10:44:24;;;;;;;2.30;1.30;;;;;;;25.22;39.13;101592.69;5049503;28;20545;-68
2022/08/02 10:46:49;;;;;;;2.95;1.10;;;;;;;25.22;38.73;101598.38;5038467;28;20041;-66
2022/08/02 10:49:21;;;;;;;2.95;1.25;;;;;;;25.18;38.45;101597.38;5047454;28;20353;-66
2022/08/02 10:51:56;;;;;;;9.60;1.50;;;;;;;25.12;38.50;101601.56;5036448;28;20036;-65
2022/08/02 10:54:31;;;;;;;3.83;1.40;;;;;;;25.07;38.80;101596.00;5050331;28;20021;-67
2022/08/02 10:56:58;;;;;;;1.20;0.98;;;;;;;25.14;38.73;101601.22;5050333;28;20033;-69
2022/08/02 10:59:38;;;;;;;5.00;1.35;;;;;;;25.23;39.56;101599.22;5047150;28;20072;-67
2022/08/02 11:02:05;;;;;;;6.53;1.50;;;;;;;25.38;39.04;101592.19;5046564;28;20052;-70
2022/08/02 11:04:42;;;;;;;4.40;1.50;;;;;;;25.49;37.97;101589.84;5048970;28;20476;-67
2022/08/02 11:07:08;;;;;;;3.72;1.13;;;;;;;25.53;37.44;101594.50;5051383;28;20048;-70
2022/08/02 11:09:34;;;;;;;17.38;2.10;;;;;;;25.54;37.53;101601.00;5048685;28;20028;-68
2022/08/02 11:12:06;;;;;;;9.60;1.75;;;;;;;25.71;37.77;101595.31;5051454;28;20507;-69
2022/08/02 11:14:35;;;;;;;;;;;;;;;25.58;38.61;101602.84;5046700;28;20104;-68
2022/08/02 11:17:06;;;;;;;1.23;0.95;;;;;;;25.63;35.57;101594.16;5046603;28;19919;-67
2022/08/02 11:19:33;;;;;;;2.38;1.17;;;;;;;25.74;36.21;101579.56;5047214;28;20033;-69
2022/08/02 11:22:15;;;;;;;3.33;1.25;;;;;;;25.82;36.66;101588.13;5046561;28;20380;-69
2022/08/02 11:24:40;;;;;;;3.25;1.15;;;;;;;25.91;35.83;101586.09;5050805;28;21564;-70
2022/08/02 11:27:08;;;;;;;6.32;1.77;;;;;;;25.95;36.02;101580.56;5048808;28;20151;-68
2022/08/02 11:29:40;;;;;;;1.67;1.10;;;;;;;25.92;35.13;101573.53;5051822;28;20051;-70
2022/08/02 11:32:19;;;;;;;3.38;1.00;;;;;;;25.99;35.53;101575.84;5046374;28;20025;-68
2022/08/02 11:34:50;;;;;;;3.72;1.10;;;;;;;25.99;35.50;101575.84;5046229;28;20171;-69
2022/08/02 11:37:34;;;;;;;3.45;1.05;;;;;;;25.93;35.52;101582.88;5045478;28;20536;-64
2022/08/02 11:40:00;;;;;;;2.55;0.90;;;;;;;25.92;33.91;101572.69;5042780;28;20025;-65
2022/08/02 11:42:33;;;;;;;1.77;0.90;;;;;;;25.82;35.03;101582.44;5050216;28;20035;-66
2022/08/02 11:44:58;;;;;;;2.42;1.23;;;;;;;25.77;35.84;101578.91;5041162;28;20045;-67
2022/08/02 11:47:24;;;;;;;1.08;0.93;;;;;;;25.78;36.06;101580.59;5053871;28;20036;-67
2022/08/02 11:49:49;;;;;;;3.03;0.98;;;;;;;25.79;35.92;101577.44;5049918;28;20083;-67
2022/08/02 11:52:14;;;;;;;1.17;1.00;;;;;;;25.89;35.67;101581.91;5044442;28;20487;-67